This is the latest recevied weather packets stored in our database for station/object KE8GJZ-1. If no packets are shown the sender has not sent any weather packets the latest 10 day(s).
| Time | Temp. | Humidity | Pressure | Rain* | Wind** | Luminosity | Snow |
|---|---|---|---|---|---|---|---|
| 1778031189 | 9.44° C | 58% | 1006.5 hPa | 0 mm | - | 0 W/m² | - |
| 1778030886 | 9.44° C | 59% | 1006.7 hPa | 0 mm | - | 0 W/m² | - |
| 1778030583 | 9.44° C | 60% | 1006.7 hPa | 0 mm | - | 0 W/m² | - |
| 1778030280 | 9.44° C | 60% | 1006.5 hPa | 0 mm | - | 0 W/m² | - |
| 1778029976 | 9.44° C | 60% | 1006.3 hPa | 0 mm | - | 0 W/m² | - |
| 1778029675 | 9.44° C | 56% | 1005.9 hPa | 0 mm | - | 0 W/m² | - |
| 1778029372 | 9.44° C | 57% | 1006.3 hPa | 0 mm | - | 0 W/m² | - |
| 1778029069 | 9.44° C | 56% | 1006.4 hPa | 0 mm | - | 0 W/m² | - |
| 1778028766 | 9.44° C | 57% | 1006.4 hPa | 0 mm | - | 0 W/m² | - |
| 1778028461 | 10° C | 54% | 1006.5 hPa | 0 mm | - | 0 W/m² | - |
| 1778028159 | 10° C | 54% | 1006.4 hPa | 0 mm | - | 0 W/m² | - |
| 1778027855 | 10° C | 55% | 1006.7 hPa | 0 mm | - | 0 W/m² | - |
| 1778027552 | 10° C | 55% | 1006.7 hPa | 0 mm | - | 0 W/m² | - |
| 1778027248 | 10° C | 53% | 1006.6 hPa | 0 mm | - | 1 W/m² | - |
| 1778026944 | 10° C | 51% | 1006.5 hPa | 0 mm | - | 0 W/m² | - |
| 1778026640 | 10° C | 53% | 1006.5 hPa | 0 mm | - | 1 W/m² | - |
| 1778026338 | 10° C | 54% | 1006.5 hPa | 0 mm | - | 1 W/m² | - |
| 1778026034 | 10.56° C | 54% | 1006.5 hPa | 0 mm | - | 2 W/m² | - |
| 1778025732 | 10.56° C | 55% | 1006.4 hPa | 0 mm | - | 3 W/m² | - |
| 1778025429 | 10.56° C | 54% | 1006.4 hPa | 0 mm | - | 5 W/m² | - |
| 1778025127 | 10.56° C | 51% | 1006.3 hPa | 0 mm | - | 6 W/m² | - |
| 1778024823 | 10.56° C | 53% | 1006.1 hPa | 0 mm | - | 10 W/m² | - |
| 1778024521 | 10.56° C | 56% | 1006.3 hPa | 0 mm | - | 12 W/m² | - |
| 1778024217 | 10.56° C | 51% | 1006 hPa | 0 mm | - | 19 W/m² | - |
| 1778023915 | 11.11° C | 53% | 1006.1 hPa | 0 mm | - | 18 W/m² | - |
* Rain latest hour (hover to see other rain measurements)
** Current wind speed in m/s (hover to see current wind gust speed)